Time;durP1;ratioP1;P1;durP2;ratioP2;P2;SDS_P1;SDS_P2;PMS_P1;PMS_P2;Temp;Humidity;BMP_temperature;BMP_pressure;BME280_temperature;BME280_humidity;BME280_pressure;Samples;Min_cycle;Max_cycle;Signal;HPM_P1;HPM_P2
2021/03/22 00:00:54;;;;;;;15.32;5.40;;;;;;;;;;5092955;28;20028;-54
2021/03/22 00:03:22;;;;;;;15.18;5.25;;;;;;;;;;5092542;28;20357;-53
2021/03/22 00:05:48;;;;;;;23.10;5.55;;;;;;;;;;5092692;28;20442;-54
2021/03/22 00:08:15;;;;;;;22.85;7.05;;;;;;;;;;5092581;28;20430;-53
2021/03/22 00:10:42;;;;;;;29.23;6.78;;;;;;;;;;5092786;28;20024;-53
2021/03/22 00:13:08;;;;;;;42.60;10.90;;;;;;;;;;5092904;28;20069;-54
2021/03/22 00:15:35;;;;;;;22.55;5.80;;;;;;;;;;5092752;28;20445;-54
2021/03/22 00:18:01;;;;;;;35.30;7.03;;;;;;;;;;5092272;28;20024;-54
2021/03/22 00:20:28;;;;;;;15.82;6.28;;;;;;;;;;5092987;28;20035;-54
2021/03/22 00:22:54;;;;;;;39.95;9.70;;;;;;;;;;5096378;28;20020;-53
2021/03/22 00:25:20;;;;;;;60.25;11.30;;;;;;;;;;5096315;28;20546;-54
2021/03/22 00:27:47;;;;;;;27.80;8.02;;;;;;;;;;5096133;28;20024;-54
2021/03/22 00:30:16;;;;;;;69.05;13.00;;;;;;;;;;5096236;28;20024;-53
2021/03/22 00:32:42;;;;;;;58.92;13.65;;;;;;;;;;5095781;28;20036;-54
2021/03/22 00:35:09;;;;;;;78.70;12.73;;;;;;;;;;5096261;28;20028;-54
2021/03/22 00:37:35;;;;;;;65.53;13.32;;;;;;;;;;5095833;28;20441;-54
2021/03/22 00:40:00;;;;;;;23.30;4.65;;;;;;;;;;5096230;28;20046;-54
2021/03/22 00:42:26;;;;;;;17.92;5.68;;;;;;;;;;5095850;28;20426;-54
2021/03/22 00:44:52;;;;;;;21.77;5.13;;;;;;;;;;5096086;28;20081;-53
2021/03/22 00:47:18;;;;;;;16.75;5.30;;;;;;;;;;5095173;28;20537;-54
2021/03/22 00:49:44;;;;;;;20.67;5.15;;;;;;;;;;5096200;28;20028;-54
2021/03/22 00:52:11;;;;;;;20.17;5.90;;;;;;;;;;5095755;28;20033;-53
2021/03/22 00:54:38;;;;;;;18.27;5.30;;;;;;;;;;5096011;28;20346;-53
2021/03/22 00:57:04;;;;;;;11.18;4.28;;;;;;;;;;5095437;28;20016;-53
2021/03/22 00:59:30;;;;;;;16.25;5.20;;;;;;;;;;5095761;28;20370;-54
2021/03/22 01:01:56;;;;;;;11.25;3.80;;;;;;;;;;5095631;28;20446;-54
2021/03/22 01:04:22;;;;;;;12.63;4.57;;;;;;;;;;5095602;28;20360;-53
2021/03/22 01:06:48;;;;;;;17.67;4.20;;;;;;;;;;5095611;28;20118;-53
2021/03/22 01:09:14;;;;;;;14.48;4.18;;;;;;;;;;5095422;28;20031;-53
2021/03/22 01:11:40;;;;;;;14.77;5.25;;;;;;;;;;5095259;28;20024;-54
2021/03/22 01:14:06;;;;;;;22.88;4.53;;;;;;;;;;5095471;28;20024;-53
2021/03/22 01:16:34;;;;;;;19.83;4.97;;;;;;;;;;5095127;28;20477;-53
2021/03/22 01:19:02;;;;;;;18.05;5.10;;;;;;;;;;5095367;28;20047;-54
2021/03/22 01:21:33;;;;;;;20.10;4.40;;;;;;;;;;5095247;28;20020;-53
2021/03/22 01:24:00;;;;;;;18.40;4.78;;;;;;;;;;5095451;28;20107;-53
2021/03/22 01:26:28;;;;;;;11.02;3.83;;;;;;;;;;5095521;28;20106;-54
2021/03/22 01:28:54;;;;;;;12.13;4.28;;;;;;;;;;5094793;28;20021;-53
2021/03/22 01:31:20;;;;;;;18.80;4.70;;;;;;;;;;5095100;28;20031;-54
2021/03/22 01:33:50;;;;;;;12.20;4.55;;;;;;;;;;5094608;28;20028;-54
2021/03/22 01:36:17;;;;;;;19.27;3.85;;;;;;;;;;5094972;28;20020;-54
2021/03/22 01:38:43;;;;;;;8.90;3.38;;;;;;;;;;5094592;28;20032;-53
2021/03/22 01:41:15;;;;;;;15.40;4.03;;;;;;;;;;5094860;28;20047;-53
2021/03/22 01:44:04;;;;;;;13.38;4.18;;;;;;;;;;5094768;28;20071;-54
2021/03/22 01:46:31;;;;;;;23.70;4.15;;;;;;;;;;5094794;28;20043;-54
2021/03/22 01:48:57;;;;;;;9.05;3.03;;;;;;;;;;5094360;28;20103;-54
2021/03/22 01:51:24;;;;;;;14.73;3.05;;;;;;;;;;5095174;28;20034;-53
2021/03/22 01:53:50;;;;;;;21.80;3.95;;;;;;;;;;5094495;28;20024;-53
2021/03/22 01:56:25;;;;;;;14.55;4.22;;;;;;;;;;5094708;28;20465;-53
2021/03/22 01:58:51;;;;;;;15.88;3.00;;;;;;;;;;5094406;28;20528;-54
2021/03/22 02:01:18;;;;;;;12.30;3.15;;;;;;;;;;5094554;28;20103;-53
2021/03/22 02:03:44;;;;;;;18.05;3.80;;;;;;;;;;5094345;28;20027;-54
2021/03/22 02:06:10;;;;;;;13.95;3.47;;;;;;;;;;5094253;28;20051;-54
2021/03/22 02:08:38;;;;;;;14.80;3.45;;;;;;;;;;5093896;28;20024;-54
2021/03/22 02:11:05;;;;;;;14.25;3.00;;;;;;;;;;5094456;28;20024;-53
2021/03/22 02:13:33;;;;;;;11.43;3.80;;;;;;;;;;5094525;28;20024;-53
2021/03/22 02:16:04;;;;;;;20.90;4.53;;;;;;;;;;5094291;28;20039;-53
2021/03/22 02:18:53;;;;;;;18.20;4.15;;;;;;;;;;5092573;28;20446;-53
2021/03/22 02:21:38;;;;;;;15.27;3.60;;;;;;;;;;5083712;28;20032;-54
2021/03/22 02:24:22;;;;;;;13.40;2.92;;;;;;;;;;5094076;28;20028;-54
2021/03/22 02:27:14;;;;;;;12.02;3.15;;;;;;;;;;5093972;28;20040;-54
2021/03/22 02:30:00;;;;;;;17.35;3.30;;;;;;;;;;5071174;28;20392;-54
2021/03/22 02:32:37;;;;;;;15.10;2.78;;;;;;;;;;5071150;28;20028;-53
2021/03/22 02:35:15;;;;;;;18.23;3.45;;;;;;;;;;5071331;28;20040;-54
2021/03/22 02:37:49;;;;;;;12.07;3.03;;;;;;;;;;5070638;28;20074;-54
2021/03/22 02:40:17;;;;;;;9.32;3.22;;;;;;;;;;5071208;28;20036;-54
2021/03/22 02:42:45;;;;;;;17.35;3.35;;;;;;;;;;5070786;28;20458;-54
2021/03/22 02:45:12;;;;;;;14.27;3.65;;;;;;;;;;5071130;28;20017;-54
2021/03/22 02:47:39;;;;;;;17.83;3.70;;;;;;;;;;5070667;28;20113;-54
2021/03/22 02:50:08;;;;;;;19.13;3.92;;;;;;;;;;5070764;28;20016;-53
2021/03/22 02:52:46;;;;;;;18.67;4.57;;;;;;;;;;5070965;28;20024;-53
2021/03/22 02:55:21;;;;;;;11.15;3.25;;;;;;;;;;5070957;28;20119;-53
2021/03/22 02:57:47;;;;;;;14.52;3.40;;;;;;;;;;5070635;28;20035;-54
2021/03/22 03:00:18;;;;;;;21.20;3.88;;;;;;;;;;5054296;28;20436;-54
2021/03/22 03:05:51;;;;;;;16.48;2.70;;;;;;;;;;5068003;28;20165;-55
2021/03/22 03:08:18;;;;;;;11.67;3.73;;;;;;;;;;5092938;28;20028;-54
2021/03/22 03:10:44;;;;;;;14.15;3.30;;;;;;;;;;5093414;28;20331;-55
2021/03/22 03:13:10;;;;;;;16.40;2.60;;;;;;;;;;5093204;28;20066;-54
2021/03/22 03:15:36;;;;;;;13.65;3.65;;;;;;;;;;5093063;28;20457;-54
2021/03/22 03:18:02;;;;;;;12.63;2.53;;;;;;;;;;5093141;28;20028;-54
2021/03/22 03:20:30;;;;;;;10.88;3.85;;;;;;;;;;5093092;28;20028;-54
2021/03/22 03:22:56;;;;;;;13.75;3.80;;;;;;;;;;5105168;28;20027;-54
2021/03/22 03:25:23;;;;;;;10.13;3.13;;;;;;;;;;5113593;28;20030;-54
2021/03/22 03:27:49;;;;;;;14.43;3.88;;;;;;;;;;5112932;28;20096;-54
2021/03/22 03:30:18;;;;;;;11.13;2.97;;;;;;;;;;5113468;28;20030;-54
2021/03/22 03:32:44;;;;;;;18.90;3.58;;;;;;;;;;5113410;28;20031;-54
2021/03/22 03:35:11;;;;;;;16.77;3.45;;;;;;;;;;5113608;28;20024;-55
2021/03/22 03:37:37;;;;;;;11.32;2.83;;;;;;;;;;5113181;28;20023;-54
2021/03/22 03:40:10;;;;;;;12.20;3.38;;;;;;;;;;5113568;28;20031;-54
2021/03/22 03:42:36;;;;;;;13.93;2.72;;;;;;;;;;5112977;28;20029;-54
2021/03/22 03:45:05;;;;;;;16.75;3.65;;;;;;;;;;5113501;28;20077;-54
2021/03/22 03:47:31;;;;;;;12.20;2.83;;;;;;;;;;5113181;28;20042;-54
2021/03/22 03:49:57;;;;;;;21.42;3.65;;;;;;;;;;5113375;28;20032;-54
2021/03/22 03:52:22;;;;;;;9.73;2.58;;;;;;;;;;5113360;28;20028;-55
2021/03/22 03:54:48;;;;;;;10.68;2.72;;;;;;;;;;5113452;28;20038;-54
2021/03/22 03:57:14;;;;;;;27.40;3.35;;;;;;;;;;5115782;28;20027;-55
2021/03/22 03:59:40;;;;;;;15.43;3.30;;;;;;;;;;5117360;28;20540;-55
2021/03/22 04:02:06;;;;;;;11.80;3.05;;;;;;;;;;5117200;28;20043;-54
2021/03/22 04:04:32;;;;;;;11.55;3.05;;;;;;;;;;5117391;28;20353;-54
2021/03/22 04:06:58;;;;;;;11.13;2.22;;;;;;;;;;5115473;28;20173;-54
2021/03/22 04:09:24;;;;;;;8.77;2.30;;;;;;;;;;5117217;28;20019;-54
2021/03/22 04:11:51;;;;;;;14.50;2.17;;;;;;;;;;5116735;28;20522;-54
2021/03/22 04:14:20;;;;;;;9.85;2.53;;;;;;;;;;5117162;28;20028;-54
2021/03/22 04:16:46;;;;;;;14.18;2.67;;;;;;;;;;5116835;28;20019;-54
2021/03/22 04:19:12;;;;;;;17.23;2.60;;;;;;;;;;5116973;28;20077;-54
2021/03/22 04:21:38;;;;;;;13.93;2.60;;;;;;;;;;5116752;28;20076;-55
2021/03/22 04:24:04;;;;;;;17.50;3.03;;;;;;;;;;5116767;28;20027;-54
2021/03/22 04:26:30;;;;;;;17.00;2.85;;;;;;;;;;5116373;28;20062;-54
2021/03/22 04:28:56;;;;;;;14.95;2.35;;;;;;;;;;5116696;28;20016;-54
2021/03/22 04:31:24;;;;;;;15.85;3.00;;;;;;;;;;5116524;28;20129;-54
2021/03/22 04:33:50;;;;;;;10.57;2.30;;;;;;;;;;5116570;28;20027;-54
2021/03/22 04:36:19;;;;;;;12.80;2.17;;;;;;;;;;5116654;28;20124;-54
2021/03/22 04:38:45;;;;;;;12.13;2.42;;;;;;;;;;5116197;28;20349;-54
2021/03/22 04:41:11;;;;;;;14.07;2.35;;;;;;;;;;5116786;28;20457;-54
2021/03/22 04:43:37;;;;;;;11.05;3.35;;;;;;;;;;5115822;27;20051;-54
2021/03/22 04:46:03;;;;;;;17.15;3.47;;;;;;;;;;5116307;28;20135;-54
2021/03/22 04:48:29;;;;;;;10.55;3.25;;;;;;;;;;5115675;28;20026;-55
2021/03/22 04:50:55;;;;;;;13.55;2.55;;;;;;;;;;5103203;28;20027;-54
2021/03/22 04:53:21;;;;;;;24.45;2.83;;;;;;;;;;5095644;28;20016;-54
2021/03/22 04:55:47;;;;;;;17.88;2.83;;;;;;;;;;5095618;28;20401;-54
2021/03/22 04:58:14;;;;;;;18.75;2.83;;;;;;;;;;5111596;28;20064;-54
2021/03/22 05:00:41;;;;;;;13.25;2.65;;;;;;;;;;5115912;28;20077;-54
2021/03/22 05:03:08;;;;;;;17.15;2.50;;;;;;;;;;5116084;28;20575;-54
2021/03/22 05:05:36;;;;;;;10.35;3.95;;;;;;;;;;5116025;28;20032;-54
2021/03/22 05:08:02;;;;;;;19.63;3.55;;;;;;;;;;5114389;27;20054;-54
2021/03/22 05:10:30;;;;;;;17.83;2.60;;;;;;;;;;5115726;28;20035;-54
2021/03/22 05:12:56;;;;;;;11.80;2.25;;;;;;;;;;5115987;28;20111;-54
2021/03/22 05:15:23;;;;;;;14.02;2.97;;;;;;;;;;5115890;28;20613;-54
2021/03/22 05:17:49;;;;;;;4.25;1.92;;;;;;;;;;5115689;28;20019;-54
2021/03/22 05:20:19;;;;;;;23.30;2.80;;;;;;;;;;5115823;28;20098;-54
2021/03/22 05:22:45;;;;;;;5.68;2.13;;;;;;;;;;5115311;28;20442;-55
2021/03/22 05:25:11;;;;;;;9.10;1.83;;;;;;;;;;5115752;27;20034;-54
2021/03/22 05:27:37;;;;;;;11.57;2.00;;;;;;;;;;5115363;28;20032;-54
2021/03/22 05:30:06;;;;;;;16.83;2.95;;;;;;;;;;5115605;28;20024;-54
2021/03/22 05:32:34;;;;;;;8.68;2.83;;;;;;;;;;5115450;28;20030;-54
2021/03/22 05:35:00;;;;;;;12.43;2.08;;;;;;;;;;5115331;28;20050;-54
2021/03/22 05:37:26;;;;;;;16.58;2.42;;;;;;;;;;5114857;28;20023;-54
2021/03/22 05:39:52;;;;;;;14.45;2.70;;;;;;;;;;5115338;28;20027;-54
2021/03/22 05:42:27;;;;;;;19.27;2.83;;;;;;;;;;5114996;28;20072;-55
2021/03/22 05:44:57;;;;;;;11.95;2.33;;;;;;;;;;5115304;28;20073;-54
2021/03/22 05:47:28;;;;;;;14.70;3.75;;;;;;;;;;5114869;28;20043;-54
2021/03/22 05:49:57;;;;;;;15.25;2.85;;;;;;;;;;5114868;28;20012;-54
2021/03/22 05:52:29;;;;;;;12.30;2.22;;;;;;;;;;5115011;28;20059;-54
2021/03/22 05:54:58;;;;;;;25.13;3.83;;;;;;;;;;5115087;28;20035;-54
2021/03/22 05:57:27;;;;;;;8.93;2.47;;;;;;;;;;5114504;28;20024;-54
2021/03/22 06:00:02;;;;;;;10.27;3.05;;;;;;;;;;5115052;28;20032;-54
2021/03/22 06:02:34;;;;;;;15.38;3.05;;;;;;;;;;5114900;27;20035;-55
2021/03/22 06:05:12;;;;;;;17.77;3.05;;;;;;;;;;5115040;27;20047;-54
2021/03/22 06:07:43;;;;;;;7.32;2.00;;;;;;;;;;5114373;28;20043;-54
2021/03/22 06:10:20;;;;;;;16.95;2.88;;;;;;;;;;5115300;28;20024;-54
2021/03/22 06:12:53;;;;;;;10.52;2.22;;;;;;;;;;5114743;28;20466;-54
2021/03/22 06:15:36;;;;;;;11.38;2.20;;;;;;;;;;5114785;28;20028;-54
2021/03/22 06:18:06;;;;;;;12.93;1.88;;;;;;;;;;5114339;28;20028;-54
2021/03/22 06:20:33;;;;;;;9.82;2.58;;;;;;;;;;5114414;28;20055;-54
2021/03/22 06:23:09;;;;;;;13.20;2.63;;;;;;;;;;5114295;28;20028;-54
2021/03/22 06:25:36;;;;;;;8.10;2.60;;;;;;;;;;5114699;28;20311;-54
2021/03/22 06:28:18;;;;;;;20.02;2.90;;;;;;;;;;5113997;28;20024;-54
2021/03/22 06:30:57;;;;;;;10.30;2.22;;;;;;;;;;5114419;28;20023;-54
2021/03/22 06:33:35;;;;;;;9.60;2.25;;;;;;;;;;5113260;28;20067;-54
2021/03/22 06:36:01;;;;;;;11.02;2.60;;;;;;;;;;5114636;28;20020;-54
2021/03/22 06:38:27;;;;;;;6.40;2.17;;;;;;;;;;5113991;28;20065;-54
2021/03/22 06:40:53;;;;;;;10.13;1.98;;;;;;;;;;5114323;28;20448;-54
2021/03/22 06:43:21;;;;;;;10.43;1.83;;;;;;;;;;5113982;28;20043;-54
2021/03/22 06:45:46;;;;;;;10.73;2.55;;;;;;;;;;5114099;28;20435;-54
2021/03/22 06:48:18;;;;;;;12.95;1.98;;;;;;;;;;5113485;28;20047;-54
2021/03/22 06:50:46;;;;;;;18.98;2.67;;;;;;;;;;5114323;28;20089;-54
2021/03/22 06:53:30;;;;;;;10.45;2.47;;;;;;;;;;5113886;28;20118;-54
2021/03/22 06:56:08;;;;;;;8.52;1.83;;;;;;;;;;5114140;28;20020;-54
2021/03/22 06:58:34;;;;;;;9.80;2.30;;;;;;;;;;5113145;28;20023;-55
2021/03/22 07:01:32;;;;;;;9.10;2.10;;;;;;;;;;5106893;28;20032;-54
2021/03/22 07:04:16;;;;;;;11.20;1.95;;;;;;;;;;5059821;28;20041;-54
2021/03/22 07:06:43;;;;;;;15.65;2.90;;;;;;;;;;5067104;28;20045;-54
2021/03/22 07:09:28;;;;;;;11.32;2.25;;;;;;;;;;5059659;28;20509;-54
2021/03/22 07:11:54;;;;;;;20.42;2.80;;;;;;;;;;5058552;28;20025;-54
2021/03/22 07:14:25;;;;;;;7.75;1.83;;;;;;;;;;5050554;28;20386;-54
2021/03/22 07:17:05;;;;;;;13.98;2.75;;;;;;;;;;5069831;28;20053;-54
2021/03/22 07:19:31;;;;;;;7.32;1.90;;;;;;;;;;5070135;28;20028;-54
2021/03/22 07:21:58;;;;;;;6.15;2.38;;;;;;;;;;5058353;28;20028;-54
2021/03/22 07:24:42;;;;;;;11.90;2.55;;;;;;;;;;5070598;28;20096;-54
2021/03/22 07:27:26;;;;;;;8.52;1.92;;;;;;;;;;5070117;28;20048;-54
2021/03/22 07:30:10;;;;;;;16.15;1.77;;;;;;;;;;5070183;28;20039;-54
2021/03/22 07:32:36;;;;;;;10.85;1.67;;;;;;;;;;5057663;28;20132;-54
2021/03/22 07:35:19;;;;;;;9.77;2.10;;;;;;;;;;5074611;28;20064;-54
2021/03/22 07:37:53;;;;;;;4.47;1.20;;;;;;;;;;5074386;28;20033;-54
2021/03/22 07:40:23;;;;;;;6.20;1.80;;;;;;;;;;5106888;28;20487;-54
2021/03/22 07:43:07;;;;;;;5.22;1.67;;;;;;;;;;5116532;28;20225;-54
2021/03/22 07:45:33;;;;;;;12.23;2.15;;;;;;;;;;5101637;28;20039;-54
2021/03/22 07:47:59;;;;;;;12.40;2.42;;;;;;;;;;5098863;28;20032;-54
2021/03/22 07:50:54;;;;;;;9.15;1.58;;;;;;;;;;5106159;28;20018;-54
2021/03/22 07:53:23;;;;;;;7.43;2.10;;;;;;;;;;5085229;28;20032;-54
2021/03/22 07:55:53;;;;;;;12.60;1.52;;;;;;;;;;5111387;28;20106;-54
2021/03/22 07:58:25;;;;;;;20.13;2.53;;;;;;;;;;5099934;28;20112;-54
2021/03/22 08:00:57;;;;;;;12.98;1.92;;;;;;;;;;5106807;28;20111;-54
2021/03/22 08:03:23;;;;;;;7.30;2.70;;;;;;;;;;5102035;28;20027;-54
2021/03/22 08:05:49;;;;;;;21.50;2.05;;;;;;;;;;5110884;28;20153;-54
2021/03/22 08:08:38;;;;;;;4.70;1.83;;;;;;;;;;5112637;28;20122;-55
2021/03/22 08:11:08;;;;;;;12.00;2.35;;;;;;;;;;5103091;28;20028;-54
2021/03/22 08:13:44;;;;;;;9.63;2.67;;;;;;;;;;5109323;28;20019;-54
2021/03/22 08:16:19;;;;;;;10.75;2.30;;;;;;;;;;5106680;28;20024;-54
2021/03/22 08:18:51;;;;;;;8.50;1.63;;;;;;;;;;5110042;28;20032;-54
2021/03/22 08:21:29;;;;;;;6.90;1.38;;;;;;;;;;5102003;28;20016;-54
2021/03/22 08:23:58;;;;;;;10.40;2.22;;;;;;;;;;5104503;28;20023;-54
2021/03/22 08:26:27;;;;;;;11.25;1.75;;;;;;;;;;5102991;28;20032;-54
2021/03/22 08:29:04;;;;;;;5.93;1.13;;;;;;;;;;5108369;28;20465;-54
2021/03/22 08:31:35;;;;;;;13.23;1.95;;;;;;;;;;5101696;28;20352;-55
2021/03/22 08:34:04;;;;;;;9.68;1.80;;;;;;;;;;5101776;28;20215;-54
2021/03/22 08:36:37;;;;;;;12.00;3.10;;;;;;;;;;5097267;28;20028;-54
2021/03/22 08:39:18;;;;;;;5.18;1.85;;;;;;;;;;5096402;28;20036;-54
2021/03/22 08:41:51;;;;;;;17.90;1.83;;;;;;;;;;5107959;28;20020;-54
2021/03/22 08:44:35;;;;;;;11.55;2.33;;;;;;;;;;5099768;28;20024;-54
2021/03/22 08:47:16;;;;;;;8.32;1.83;;;;;;;;;;5111812;28;20035;-54
2021/03/22 08:49:47;;;;;;;12.95;2.97;;;;;;;;;;5103848;28;20046;-55
2021/03/22 08:52:13;;;;;;;;;;;;;;;;;;5112843;28;20024;-54
2021/03/22 08:54:39;;;;;;;11.02;1.88;;;;;;;;;;5103467;28;20237;-54
2021/03/22 08:57:20;;;;;;;10.18;1.95;;;;;;;;;;5104111;28;20016;-54
2021/03/22 08:59:47;;;;;;;13.38;2.28;;;;;;;;;;5104144;28;20027;-54
2021/03/22 09:02:26;;;;;;;10.10;2.20;;;;;;;;;;5105675;28;20430;-54
2021/03/22 09:04:53;;;;;;;6.03;1.13;;;;;;;;;;5105111;28;20460;-55
2021/03/22 09:07:20;;;;;;;11.05;1.65;;;;;;;;;;5105726;28;20043;-54
2021/03/22 09:09:47;;;;;;;21.45;2.08;;;;;;;;;;5103513;28;20012;-54
2021/03/22 09:12:29;;;;;;;6.47;1.38;;;;;;;;;;5104349;28;20109;-54
2021/03/22 09:14:55;;;;;;;9.43;1.60;;;;;;;;;;5105021;28;20438;-54
2021/03/22 09:17:25;;;;;;;6.75;1.40;;;;;;;;;;5103245;28;20099;-54
2021/03/22 09:20:10;;;;;;;4.60;1.40;;;;;;;;;;5104684;28;20024;-54
2021/03/22 09:22:42;;;;;;;8.50;2.10;;;;;;;;;;5102952;28;20024;-54
2021/03/22 09:25:09;;;;;;;10.63;2.05;;;;;;;;;;5108119;28;20035;-54
2021/03/22 09:27:35;;;;;;;6.57;1.67;;;;;;;;;;5105838;28;20046;-54
2021/03/22 09:30:02;;;;;;;5.80;1.60;;;;;;;;;;5100736;28;20028;-54
2021/03/22 09:32:32;;;;;;;6.07;1.33;;;;;;;;;;5111804;28;20038;-54
2021/03/22 09:35:01;;;;;;;6.80;1.98;;;;;;;;;;5100134;28;20024;-54
2021/03/22 09:37:49;;;;;;;14.90;1.42;;;;;;;;;;5105101;28;20052;-54
2021/03/22 09:40:18;;;;;;;24.85;1.75;;;;;;;;;;5095569;28;20077;-54
2021/03/22 09:42:44;;;;;;;9.13;1.38;;;;;;;;;;5098404;28;20062;-54
2021/03/22 09:45:13;;;;;;;12.52;1.50;;;;;;;;;;5107471;28;20066;-54
2021/03/22 09:47:42;;;;;;;6.60;1.58;;;;;;;;;;5101419;28;20036;-54
2021/03/22 09:50:37;;;;;;;12.73;2.35;;;;;;;;;;5108916;28;20441;-54
2021/03/22 09:53:12;;;;;;;7.45;1.15;;;;;;;;;;5089066;28;20457;-54
2021/03/22 09:55:50;;;;;;;5.60;1.30;;;;;;;;;;5100930;28;20039;-54
2021/03/22 09:58:27;;;;;;;10.30;1.20;;;;;;;;;;5102227;28;20333;-55
2021/03/22 10:01:13;;;;;;;8.18;1.17;;;;;;;;;;5105109;28;20103;-54
2021/03/22 10:04:08;;;;;;;2.55;1.10;;;;;;;;;;5096092;28;20123;-55
2021/03/22 10:06:54;;;;;;;2.90;1.38;;;;;;;;;;5096007;28;20040;-54
2021/03/22 10:09:20;;;;;;;2.30;1.38;;;;;;;;;;5097528;28;20409;-55
2021/03/22 10:11:48;;;;;;;9.65;1.33;;;;;;;;;;5103770;28;20469;-54
2021/03/22 10:14:26;;;;;;;5.05;1.00;;;;;;;;;;5102198;28;20020;-54
2021/03/22 10:16:52;;;;;;;1.83;1.38;;;;;;;;;;5098025;28;20036;-54
2021/03/22 10:19:18;;;;;;;12.65;1.48;;;;;;;;;;5098603;28;20020;-54
2021/03/22 10:21:46;;;;;;;10.10;1.80;;;;;;;;;;5105216;28;20475;-54
2021/03/22 10:24:15;;;;;;;2.45;0.98;;;;;;;;;;5096206;28;20109;-54
2021/03/22 10:26:49;;;;;;;6.82;1.30;;;;;;;;;;5098401;28;20101;-55
2021/03/22 10:29:18;;;;;;;6.65;1.33;;;;;;;;;;5097540;28;20039;-54
2021/03/22 10:31:44;;;;;;;3.80;1.48;;;;;;;;;;5103549;28;20042;-54
2021/03/22 10:34:21;;;;;;;3.08;1.10;;;;;;;;;;5099735;28;20024;-54
2021/03/22 10:36:48;;;;;;;3.97;1.10;;;;;;;;;;5102324;28;20024;-54
2021/03/22 10:39:21;;;;;;;4.15;1.20;;;;;;;;;;5101758;28;20024;-54
2021/03/22 10:41:47;;;;;;;7.43;1.58;;;;;;;;;;5102414;28;20119;-55
2021/03/22 10:44:13;;;;;;;7.18;1.45;;;;;;;;;;5103868;28;20063;-54
2021/03/22 10:46:39;;;;;;;2.03;1.20;;;;;;;;;;5105819;28;20039;-54
2021/03/22 10:49:08;;;;;;;6.60;1.15;;;;;;;;;;5099307;28;20671;-54
2021/03/22 10:51:36;;;;;;;8.60;1.20;;;;;;;;;;5101400;28;20050;-54
2021/03/22 10:54:04;;;;;;;6.18;1.63;;;;;;;;;;5107363;28;20030;-54
2021/03/22 10:56:42;;;;;;;6.22;1.63;;;;;;;;;;5096621;28;20103;-54
2021/03/22 10:59:14;;;;;;;7.20;1.40;;;;;;;;;;5106270;28;20035;-54
2021/03/22 11:01:40;;;;;;;3.70;1.10;;;;;;;;;;5104262;28;20023;-54
2021/03/22 11:04:09;;;;;;;1.77;1.00;;;;;;;;;;5107878;28;20028;-54
2021/03/22 11:06:38;;;;;;;8.05;1.88;;;;;;;;;;5102824;28;20051;-54
2021/03/22 11:09:07;;;;;;;2.80;1.17;;;;;;;;;;5096682;28;20016;-54
2021/03/22 11:11:34;;;;;;;4.28;1.63;;;;;;;;;;5096296;28;20028;-54
2021/03/22 11:14:02;;;;;;;5.13;1.00;;;;;;;;;;5096114;28;20485;-54
2021/03/22 11:16:38;;;;;;;6.00;1.35;;;;;;;;;;5097711;28;20024;-54
2021/03/22 11:19:10;;;;;;;10.77;1.70;;;;;;;;;;5096591;28;20027;-54
2021/03/22 11:21:39;;;;;;;7.50;1.27;;;;;;;;;;5098148;28;20358;-55
2021/03/22 11:24:06;;;;;;;8.07;1.45;;;;;;;;;;5095394;28;20080;-54
2021/03/22 11:26:32;;;;;;;10.75;1.50;;;;;;;;;;5098745;28;20040;-54
2021/03/22 11:29:16;;;;;;;5.35;1.33;;;;;;;;;;5106922;28;20378;-54
2021/03/22 11:31:43;;;;;;;5.35;1.65;;;;;;;;;;5103654;28;20023;-55
2021/03/22 11:34:30;;;;;;;7.03;1.20;;;;;;;;;;5096850;28;20110;-54
2021/03/22 11:37:02;;;;;;;5.43;1.50;;;;;;;;;;5098107;28;20031;-54
2021/03/22 11:39:30;;;;;;;2.97;1.00;;;;;;;;;;5103057;28;20020;-55
2021/03/22 11:41:56;;;;;;;5.25;1.45;;;;;;;;;;5105953;28;20338;-54
2021/03/22 11:44:31;;;;;;;3.40;1.13;;;;;;;;;;5096523;28;20438;-54
2021/03/22 11:47:17;;;;;;;2.50;1.30;;;;;;;;;;5107263;28;20035;-54
2021/03/22 11:49:43;;;;;;;4.07;1.40;;;;;;;;;;5104747;28;20024;-54
2021/03/22 11:52:22;;;;;;;7.78;1.20;;;;;;;;;;5097426;28;20024;-55
2021/03/22 11:54:51;;;;;;;5.13;1.52;;;;;;;;;;5097010;28;20043;-54
2021/03/22 11:57:19;;;;;;;7.88;2.50;;;;;;;;;;5104335;28;20055;-54
2021/03/22 11:59:53;;;;;;;16.45;2.63;;;;;;;;;;5105151;28;20020;-54
2021/03/22 12:02:22;;;;;;;12.48;1.42;;;;;;;;;;5099962;28;20028;-54
2021/03/22 12:04:53;;;;;;;2.42;1.13;;;;;;;;;;5101229;28;20317;-54
2021/03/22 12:07:32;;;;;;;4.05;1.60;;;;;;;;;;5096405;28;20048;-54
2021/03/22 12:09:58;;;;;;;3.92;1.58;;;;;;;;;;5096775;28;20043;-54
2021/03/22 12:12:24;;;;;;;5.40;1.70;;;;;;;;;;5109171;28;20349;-54
2021/03/22 12:14:50;;;;;;;3.65;1.10;;;;;;;;;;5096281;28;20016;-54
2021/03/22 12:17:23;;;;;;;3.83;1.42;;;;;;;;;;5104450;28;20077;-54
2021/03/22 12:19:49;;;;;;;6.20;1.35;;;;;;;;;;5109251;28;20566;-54
2021/03/22 12:22:16;;;;;;;7.22;1.35;;;;;;;;;;5105924;28;20031;-54
2021/03/22 12:24:42;;;;;;;7.30;1.23;;;;;;;;;;5099696;28;20031;-54
2021/03/22 12:27:16;;;;;;;4.32;1.60;;;;;;;;;;5109119;27;20310;-54
2021/03/22 12:29:42;;;;;;;7.20;1.85;;;;;;;;;;5108042;28;20295;-54
2021/03/22 12:32:21;;;;;;;3.88;1.23;;;;;;;;;;5100353;28;20032;-54
2021/03/22 12:34:47;;;;;;;11.07;1.52;;;;;;;;;;5100135;28;20441;-54
2021/03/22 12:37:21;;;;;;;2.70;1.27;;;;;;;;;;5108089;28;20077;-54
2021/03/22 12:39:47;;;;;;;5.47;1.50;;;;;;;;;;5096392;28;20023;-54
2021/03/22 12:42:14;;;;;;;4.95;1.30;;;;;;;;;;5112126;28;20040;-54
2021/03/22 12:44:40;;;;;;;4.60;1.30;;;;;;;;;;5099052;28;20038;-54
2021/03/22 12:47:06;;;;;;;1.70;1.08;;;;;;;;;;5109764;28;20419;-54
2021/03/22 12:49:32;;;;;;;1.80;1.00;;;;;;;;;;5106541;28;20031;-54
2021/03/22 12:51:58;;;;;;;4.95;1.23;;;;;;;;;;5102172;28;20048;-54
2021/03/22 12:54:24;;;;;;;5.72;1.70;;;;;;;;;;5101922;28;20055;-54
2021/03/22 12:56:51;;;;;;;2.78;1.02;;;;;;;;;;5111535;28;20031;-54
2021/03/22 12:59:34;;;;;;;11.50;1.30;;;;;;;;;;5103347;28;20072;-54
2021/03/22 13:02:02;;;;;;;2.60;1.33;;;;;;;;;;5101433;28;20032;-54
2021/03/22 13:04:28;;;;;;;1.63;1.17;;;;;;;;;;5112082;28;20408;-54
2021/03/22 13:06:55;;;;;;;0.82;0.80;;;;;;;;;;5100616;28;20028;-54
2021/03/22 13:09:21;;;;;;;5.05;2.00;;;;;;;;;;5106291;27;20027;-54
2021/03/22 13:11:48;;;;;;;17.05;1.60;;;;;;;;;;5107617;28;20039;-54
2021/03/22 13:14:17;;;;;;;5.60;1.40;;;;;;;;;;5099169;28;20032;-54
2021/03/22 13:16:43;;;;;;;5.13;1.35;;;;;;;;;;5099261;28;20027;-54
2021/03/22 13:19:09;;;;;;;7.47;1.20;;;;;;;;;;5108106;28;20028;-54
2021/03/22 13:21:37;;;;;;;2.78;0.95;;;;;;;;;;5105663;28;20558;-54
2021/03/22 13:24:03;;;;;;;6.55;1.90;;;;;;;;;;5109565;28;20027;-53
2021/03/22 13:26:29;;;;;;;4.40;1.27;;;;;;;;;;5108811;28;20023;-54
2021/03/22 13:28:56;;;;;;;13.43;3.45;;;;;;;;;;5099172;28;20027;-54
2021/03/22 13:31:23;;;;;;;7.38;1.58;;;;;;;;;;5106183;28;20662;-54
2021/03/22 13:33:49;;;;;;;2.55;1.15;;;;;;;;;;5108107;28;20032;-53
2021/03/22 13:36:18;;;;;;;5.68;1.60;;;;;;;;;;5098618;28;20016;-53
2021/03/22 13:38:44;;;;;;;4.85;1.52;;;;;;;;;;5098188;28;20032;-54
2021/03/22 13:41:20;;;;;;;6.55;1.75;;;;;;;;;;5114070;28;20050;-53
2021/03/22 13:43:46;;;;;;;3.83;1.30;;;;;;;;;;5114151;28;20054;-53
2021/03/22 13:46:12;;;;;;;8.15;1.80;;;;;;;;;;5113821;28;20437;-54
2021/03/22 13:48:38;;;;;;;5.00;1.95;;;;;;;;;;5112691;28;20024;-54
2021/03/22 13:51:04;;;;;;;4.57;1.60;;;;;;;;;;5106034;28;20027;-54
2021/03/22 13:53:31;;;;;;;2.08;1.23;;;;;;;;;;5103937;28;20080;-54
2021/03/22 13:55:57;;;;;;;4.32;1.42;;;;;;;;;;5113756;28;20093;-54
2021/03/22 13:58:24;;;;;;;2.97;1.52;;;;;;;;;;5112511;28;20441;-54
2021/03/22 14:00:50;;;;;;;2.92;1.23;;;;;;;;;;5094948;28;20016;-53
2021/03/22 14:03:17;;;;;;;2.10;1.23;;;;;;;;;;5095201;28;20020;-53
2021/03/22 14:05:43;;;;;;;7.72;1.63;;;;;;;;;;5095161;28;20028;-53
2021/03/22 14:08:10;;;;;;;4.05;1.30;;;;;;;;;;5103126;28;20122;-54
2021/03/22 14:10:36;;;;;;;4.40;1.33;;;;;;;;;;5098313;28;20015;-54
2021/03/22 14:13:02;;;;;;;5.90;1.55;;;;;;;;;;5100419;28;20020;-53
2021/03/22 14:15:32;;;;;;;3.58;0.93;;;;;;;;;;5104087;28;20012;-54
2021/03/22 14:17:58;;;;;;;2.05;1.38;;;;;;;;;;5107861;28;20106;-54
2021/03/22 14:20:24;;;;;;;5.80;1.30;;;;;;;;;;5097620;28;20078;-53
2021/03/22 14:22:50;;;;;;;2.80;1.40;;;;;;;;;;5108092;27;20069;-53
2021/03/22 14:25:18;;;;;;;2.63;1.15;;;;;;;;;;5106455;28;20107;-54
2021/03/22 14:27:44;;;;;;;2.30;1.15;;;;;;;;;;5105527;28;20032;-53
2021/03/22 14:30:13;;;;;;;3.85;1.58;;;;;;;;;;5097872;28;20035;-53
2021/03/22 14:32:40;;;;;;;3.72;1.08;;;;;;;;;;5110764;28;20357;-54
2021/03/22 14:35:06;;;;;;;2.00;1.45;;;;;;;;;;5100916;28;20030;-54
2021/03/22 14:37:32;;;;;;;1.48;0.85;;;;;;;;;;5103351;28;20016;-54
2021/03/22 14:39:58;;;;;;;12.88;1.42;;;;;;;;;;5094104;28;20020;-54
2021/03/22 14:42:24;;;;;;;3.08;1.25;;;;;;;;;;5110155;28;20077;-53
2021/03/22 14:44:51;;;;;;;5.40;0.98;;;;;;;;;;5097730;28;20031;-53
2021/03/22 14:47:17;;;;;;;7.07;1.70;;;;;;;;;;5105258;28;20040;-53
2021/03/22 14:49:44;;;;;;;3.97;1.50;;;;;;;;;;5105387;28;20024;-53
2021/03/22 14:52:10;;;;;;;6.55;1.55;;;;;;;;;;5098067;28;20020;-53
2021/03/22 14:54:36;;;;;;;2.00;0.85;;;;;;;;;;5110375;28;20020;-53